sensor_id;sensor_type;location;lat;lon;timestamp;temperature;humidity
57857;DHT22;43683;48.650;9.290;2022-12-11T00:00:47;-2.00;93.30
57857;DHT22;43683;48.650;9.290;2022-12-11T00:03:12;-2.00;93.30
57857;DHT22;43683;48.650;9.290;2022-12-11T00:05:39;-2.10;93.30
57857;DHT22;43683;48.650;9.290;2022-12-11T00:08:05;-2.20;93.50
57857;DHT22;43683;48.650;9.290;2022-12-11T00:10:30;-2.30;93.60
57857;DHT22;43683;48.650;9.290;2022-12-11T00:12:56;-2.40;93.70
57857;DHT22;43683;48.650;9.290;2022-12-11T00:15:22;-2.60;93.90
57857;DHT22;43683;48.650;9.290;2022-12-11T00:17:47;-2.70;94.00
57857;DHT22;43683;48.650;9.290;2022-12-11T00:20:13;-2.80;94.10
57857;DHT22;43683;48.650;9.290;2022-12-11T00:22:38;-2.80;94.10
57857;DHT22;43683;48.650;9.290;2022-12-11T00:25:04;-2.80;94.10
57857;DHT22;43683;48.650;9.290;2022-12-11T00:27:30;-2.70;94.10
57857;DHT22;43683;48.650;9.290;2022-12-11T00:29:55;-2.70;94.00
57857;DHT22;43683;48.650;9.290;2022-12-11T00:32:21;-2.50;93.90
57857;DHT22;43683;48.650;9.290;2022-12-11T00:34:46;-2.30;93.60
57857;DHT22;43683;48.650;9.290;2022-12-11T00:37:12;-2.20;93.40
57857;DHT22;43683;48.650;9.290;2022-12-11T00:39:37;-2.00;93.10
57857;DHT22;43683;48.650;9.290;2022-12-11T00:42:05;-1.80;92.90
57857;DHT22;43683;48.650;9.290;2022-12-11T00:44:30;-1.70;92.70
57857;DHT22;43683;48.650;9.290;2022-12-11T00:46:56;-1.60;92.60
57857;DHT22;43683;48.650;9.290;2022-12-11T00:49:21;-1.50;92.50
57857;DHT22;43683;48.650;9.290;2022-12-11T00:51:47;-1.40;92.40
57857;DHT22;43683;48.650;9.290;2022-12-11T00:54:12;-1.30;92.30
57857;DHT22;43683;48.650;9.290;2022-12-11T00:56:38;-1.20;92.30
57857;DHT22;43683;48.650;9.290;2022-12-11T00:59:04;-1.20;92.20
57857;DHT22;43683;48.650;9.290;2022-12-11T01:01:29;-1.10;92.20
57857;DHT22;43683;48.650;9.290;2022-12-11T01:03:55;-1.00;92.20
57857;DHT22;43683;48.650;9.290;2022-12-11T01:06:23;-1.00;92.20
57857;DHT22;43683;48.650;9.290;2022-12-11T01:08:49;-1.00;92.20
57857;DHT22;43683;48.650;9.290;2022-12-11T01:11:38;-0.90;92.10
57857;DHT22;43683;48.650;9.290;2022-12-11T01:14:05;-0.90;92.10
57857;DHT22;43683;48.650;9.290;2022-12-11T01:16:30;-0.90;92.20
57857;DHT22;43683;48.650;9.290;2022-12-11T01:18:56;-0.90;92.20
57857;DHT22;43683;48.650;9.290;2022-12-11T01:21:22;-0.90;92.50
57857;DHT22;43683;48.650;9.290;2022-12-11T01:23:49;-0.80;92.20
57857;DHT22;43683;48.650;9.290;2022-12-11T01:26:15;-0.80;92.10
57857;DHT22;43683;48.650;9.290;2022-12-11T01:28:42;-0.80;92.10
57857;DHT22;43683;48.650;9.290;2022-12-11T01:31:09;-0.80;92.10
57857;DHT22;43683;48.650;9.290;2022-12-11T01:33:34;-0.70;92.10
57857;DHT22;43683;48.650;9.290;2022-12-11T01:36:00;-0.70;92.00
57857;DHT22;43683;48.650;9.290;2022-12-11T01:38:26;-0.70;92.00
57857;DHT22;43683;48.650;9.290;2022-12-11T01:40:51;-0.70;92.00
57857;DHT22;43683;48.650;9.290;2022-12-11T01:43:17;-0.70;92.00
57857;DHT22;43683;48.650;9.290;2022-12-11T01:45:45;-0.70;92.00
57857;DHT22;43683;48.650;9.290;2022-12-11T01:48:17;-0.70;92.00
57857;DHT22;43683;48.650;9.290;2022-12-11T01:53:27;-0.70;92.00
57857;DHT22;43683;48.650;9.290;2022-12-11T01:55:56;-0.70;92.00
57857;DHT22;43683;48.650;9.290;2022-12-11T01:58:26;-0.70;92.00
57857;DHT22;43683;48.650;9.290;2022-12-11T02:00:53;-0.70;92.00
57857;DHT22;43683;48.650;9.290;2022-12-11T02:03:20;-0.70;91.90
57857;DHT22;43683;48.650;9.290;2022-12-11T02:05:45;-0.70;91.90
57857;DHT22;43683;48.650;9.290;2022-12-11T02:08:11;-0.60;91.90
57857;DHT22;43683;48.650;9.290;2022-12-11T02:10:55;-0.60;91.80
57857;DHT22;43683;48.650;9.290;2022-12-11T02:13:28;-0.60;91.80
57857;DHT22;43683;48.650;9.290;2022-12-11T02:15:59;-0.60;91.80
57857;DHT22;43683;48.650;9.290;2022-12-11T02:18:54;-0.60;91.80
57857;DHT22;43683;48.650;9.290;2022-12-11T02:21:35;-0.60;91.80
57857;DHT22;43683;48.650;9.290;2022-12-11T02:29:50;-0.60;91.70
57857;DHT22;43683;48.650;9.290;2022-12-11T02:32:31;-0.50;91.80
57857;DHT22;43683;48.650;9.290;2022-12-11T02:35:04;-0.50;91.80
57857;DHT22;43683;48.650;9.290;2022-12-11T02:37:35;-0.50;91.80
57857;DHT22;43683;48.650;9.290;2022-12-11T02:40:03;-0.60;91.80
57857;DHT22;43683;48.650;9.290;2022-12-11T02:42:31;-0.50;91.80
57857;DHT22;43683;48.650;9.290;2022-12-11T02:44:59;-0.60;91.80
57857;DHT22;43683;48.650;9.290;2022-12-11T02:47:27;-0.60;91.80
57857;DHT22;43683;48.650;9.290;2022-12-11T02:49:55;-0.60;91.80
57857;DHT22;43683;48.650;9.290;2022-12-11T02:52:23;-0.50;91.80
57857;DHT22;43683;48.650;9.290;2022-12-11T02:54:50;-0.50;91.80
57857;DHT22;43683;48.650;9.290;2022-12-11T02:57:38;-0.50;92.00
57857;DHT22;43683;48.650;9.290;2022-12-11T03:00:08;-0.50;91.70
57857;DHT22;43683;48.650;9.290;2022-12-11T03:02:34;-0.50;91.70
57857;DHT22;43683;48.650;9.290;2022-12-11T03:05:00;-0.50;91.70
57857;DHT22;43683;48.650;9.290;2022-12-11T03:07:33;-0.50;91.70
57857;DHT22;43683;48.650;9.290;2022-12-11T03:09:59;-0.50;91.70
57857;DHT22;43683;48.650;9.290;2022-12-11T03:12:29;-0.60;91.60
57857;DHT22;43683;48.650;9.290;2022-12-11T03:14:57;-0.60;91.70
57857;DHT22;43683;48.650;9.290;2022-12-11T03:20:29;-0.70;91.70
57857;DHT22;43683;48.650;9.290;2022-12-11T03:23:32;-0.70;91.80
57857;DHT22;43683;48.650;9.290;2022-12-11T03:26:02;-0.70;91.80
57857;DHT22;43683;48.650;9.290;2022-12-11T03:28:59;-0.80;91.90
57857;DHT22;43683;48.650;9.290;2022-12-11T03:34:01;-0.90;92.00
57857;DHT22;43683;48.650;9.290;2022-12-11T03:36:34;-1.10;92.10
57857;DHT22;43683;48.650;9.290;2022-12-11T03:39:09;-1.30;92.40
57857;DHT22;43683;48.650;9.290;2022-12-11T03:41:39;-1.50;92.60
57857;DHT22;43683;48.650;9.290;2022-12-11T03:44:05;-1.50;92.70
57857;DHT22;43683;48.650;9.290;2022-12-11T03:46:34;-1.50;92.60
57857;DHT22;43683;48.650;9.290;2022-12-11T03:49:04;-1.50;92.50
57857;DHT22;43683;48.650;9.290;2022-12-11T03:51:32;-1.40;92.40
57857;DHT22;43683;48.650;9.290;2022-12-11T03:53:58;-1.40;92.30
57857;DHT22;43683;48.650;9.290;2022-12-11T03:56:26;-1.40;92.30
57857;DHT22;43683;48.650;9.290;2022-12-11T03:58:54;-1.40;92.40
57857;DHT22;43683;48.650;9.290;2022-12-11T04:01:19;-1.40;92.40
57857;DHT22;43683;48.650;9.290;2022-12-11T04:03:45;-1.40;92.40
57857;DHT22;43683;48.650;9.290;2022-12-11T04:06:10;-1.40;92.30
57857;DHT22;43683;48.650;9.290;2022-12-11T04:08:36;-1.40;92.30
57857;DHT22;43683;48.650;9.290;2022-12-11T04:11:02;-1.50;92.30
57857;DHT22;43683;48.650;9.290;2022-12-11T04:13:47;-1.60;92.40
57857;DHT22;43683;48.650;9.290;2022-12-11T04:16:32;-1.70;92.60
57857;DHT22;43683;48.650;9.290;2022-12-11T04:18:58;-1.90;92.80
57857;DHT22;43683;48.650;9.290;2022-12-11T04:21:42;-2.00;92.90
57857;DHT22;43683;48.650;9.290;2022-12-11T04:24:26;-2.10;93.10
57857;DHT22;43683;48.650;9.290;2022-12-11T04:26:51;-2.20;93.20
57857;DHT22;43683;48.650;9.290;2022-12-11T04:29:17;-2.30;93.30
57857;DHT22;43683;48.650;9.290;2022-12-11T04:31:42;-2.20;93.30
57857;DHT22;43683;48.650;9.290;2022-12-11T04:34:10;-2.20;93.30
57857;DHT22;43683;48.650;9.290;2022-12-11T04:36:35;-2.20;93.10
57857;DHT22;43683;48.650;9.290;2022-12-11T04:39:03;-2.20;93.10
57857;DHT22;43683;48.650;9.290;2022-12-11T04:41:29;-2.30;93.10
57857;DHT22;43683;48.650;9.290;2022-12-11T04:43:54;-2.40;93.20
57857;DHT22;43683;48.650;9.290;2022-12-11T04:46:22;-2.40;93.30
57857;DHT22;43683;48.650;9.290;2022-12-11T04:48:48;-2.30;93.20
57857;DHT22;43683;48.650;9.290;2022-12-11T04:51:14;-2.30;93.00
57857;DHT22;43683;48.650;9.290;2022-12-11T04:53:40;-2.20;92.80
57857;DHT22;43683;48.650;9.290;2022-12-11T04:56:08;-2.20;92.80
57857;DHT22;43683;48.650;9.290;2022-12-11T04:58:34;-2.20;92.70
57857;DHT22;43683;48.650;9.290;2022-12-11T05:01:06;-2.30;92.80
57857;DHT22;43683;48.650;9.290;2022-12-11T05:03:31;-2.30;92.90
57857;DHT22;43683;48.650;9.290;2022-12-11T05:05:57;-2.40;93.20
57857;DHT22;43683;48.650;9.290;2022-12-11T05:08:22;-2.40;93.00
57857;DHT22;43683;48.650;9.290;2022-12-11T05:10:58;-2.30;92.90
57857;DHT22;43683;48.650;9.290;2022-12-11T05:13:25;-2.30;92.90
57857;DHT22;43683;48.650;9.290;2022-12-11T05:15:51;-2.20;92.80
57857;DHT22;43683;48.650;9.290;2022-12-11T05:18:16;-2.20;92.80
57857;DHT22;43683;48.650;9.290;2022-12-11T05:20:42;-2.10;92.70
57857;DHT22;43683;48.650;9.290;2022-12-11T05:23:07;-2.10;92.70
57857;DHT22;43683;48.650;9.290;2022-12-11T05:25:33;-2.10;92.60
57857;DHT22;43683;48.650;9.290;2022-12-11T05:27:58;-2.00;92.60
57857;DHT22;43683;48.650;9.290;2022-12-11T05:30:24;-2.00;92.60
57857;DHT22;43683;48.650;9.290;2022-12-11T05:32:49;-1.90;92.50
57857;DHT22;43683;48.650;9.290;2022-12-11T05:35:15;-1.90;92.50
57857;DHT22;43683;48.650;9.290;2022-12-11T05:37:41;-1.90;92.50
57857;DHT22;43683;48.650;9.290;2022-12-11T05:40:07;-1.90;92.50
57857;DHT22;43683;48.650;9.290;2022-12-11T05:42:33;-1.90;92.80
57857;DHT22;43683;48.650;9.290;2022-12-11T05:44:59;-1.90;92.50
57857;DHT22;43683;48.650;9.290;2022-12-11T05:47:24;-1.90;92.50
57857;DHT22;43683;48.650;9.290;2022-12-11T05:49:50;-1.90;92.50
57857;DHT22;43683;48.650;9.290;2022-12-11T05:52:16;-1.90;92.50
57857;DHT22;43683;48.650;9.290;2022-12-11T05:54:41;-1.90;92.50
57857;DHT22;43683;48.650;9.290;2022-12-11T05:57:07;-1.90;92.50
57857;DHT22;43683;48.650;9.290;2022-12-11T05:59:33;-2.10;92.70
57857;DHT22;43683;48.650;9.290;2022-12-11T06:01:58;-2.30;92.90
57857;DHT22;43683;48.650;9.290;2022-12-11T06:04:24;-2.60;93.20
57857;DHT22;43683;48.650;9.290;2022-12-11T06:06:53;-2.80;93.50
57857;DHT22;43683;48.650;9.290;2022-12-11T06:09:18;-3.00;93.70
57857;DHT22;43683;48.650;9.290;2022-12-11T06:11:44;-3.20;93.90
57857;DHT22;43683;48.650;9.290;2022-12-11T06:14:10;-3.30;94.00
57857;DHT22;43683;48.650;9.290;2022-12-11T06:16:36;-3.50;94.20
57857;DHT22;43683;48.650;9.290;2022-12-11T06:19:02;-3.60;94.30
57857;DHT22;43683;48.650;9.290;2022-12-11T06:21:32;-3.60;94.30
57857;DHT22;43683;48.650;9.290;2022-12-11T06:24:00;-3.70;94.20
57857;DHT22;43683;48.650;9.290;2022-12-11T06:26:27;-3.70;94.50
57857;DHT22;43683;48.650;9.290;2022-12-11T06:28:53;-3.80;94.20
57857;DHT22;43683;48.650;9.290;2022-12-11T06:31:19;-3.80;94.20
57857;DHT22;43683;48.650;9.290;2022-12-11T06:33:45;-3.90;94.20
57857;DHT22;43683;48.650;9.290;2022-12-11T06:36:13;-3.90;94.20
57857;DHT22;43683;48.650;9.290;2022-12-11T06:38:39;-3.90;94.20
57857;DHT22;43683;48.650;9.290;2022-12-11T06:41:06;-3.90;94.10
57857;DHT22;43683;48.650;9.290;2022-12-11T06:43:33;-3.80;94.00
57857;DHT22;43683;48.650;9.290;2022-12-11T06:46:03;-3.90;93.90
57857;DHT22;43683;48.650;9.290;2022-12-11T06:48:29;-4.00;93.90
57857;DHT22;43683;48.650;9.290;2022-12-11T06:50:55;-4.00;94.00
57857;DHT22;43683;48.650;9.290;2022-12-11T06:53:21;-4.10;94.10
57857;DHT22;43683;48.650;9.290;2022-12-11T06:55:46;-4.20;94.10
57857;DHT22;43683;48.650;9.290;2022-12-11T06:58:12;-4.30;94.10
57857;DHT22;43683;48.650;9.290;2022-12-11T07:00:37;-4.40;94.20
57857;DHT22;43683;48.650;9.290;2022-12-11T07:03:04;-4.40;94.30
57857;DHT22;43683;48.650;9.290;2022-12-11T07:05:30;-4.50;94.30
57857;DHT22;43683;48.650;9.290;2022-12-11T07:07:56;-4.50;94.40
57857;DHT22;43683;48.650;9.290;2022-12-11T07:10:22;-4.60;94.40
57857;DHT22;43683;48.650;9.290;2022-12-11T07:12:48;-4.70;94.40
57857;DHT22;43683;48.650;9.290;2022-12-11T07:15:13;-4.60;94.40
57857;DHT22;43683;48.650;9.290;2022-12-11T07:17:39;-4.60;94.40
57857;DHT22;43683;48.650;9.290;2022-12-11T07:20:05;-4.50;94.30
57857;DHT22;43683;48.650;9.290;2022-12-11T07:22:31;-4.40;94.10
57857;DHT22;43683;48.650;9.290;2022-12-11T07:24:56;-4.40;94.10
57857;DHT22;43683;48.650;9.290;2022-12-11T07:27:22;-4.20;93.90
57857;DHT22;43683;48.650;9.290;2022-12-11T07:29:49;-4.10;93.80
57857;DHT22;43683;48.650;9.290;2022-12-11T07:32:15;-3.90;93.60
57857;DHT22;43683;48.650;9.290;2022-12-11T07:34:40;-3.70;93.70
57857;DHT22;43683;48.650;9.290;2022-12-11T07:37:06;-3.40;93.20
57857;DHT22;43683;48.650;9.290;2022-12-11T07:39:31;-3.10;92.90
57857;DHT22;43683;48.650;9.290;2022-12-11T07:41:57;-2.80;92.70
57857;DHT22;43683;48.650;9.290;2022-12-11T07:44:23;-2.60;92.60
57857;DHT22;43683;48.650;9.290;2022-12-11T07:46:48;-2.50;92.50
57857;DHT22;43683;48.650;9.290;2022-12-11T07:49:14;-2.30;92.40
57857;DHT22;43683;48.650;9.290;2022-12-11T07:51:41;-2.20;92.50
57857;DHT22;43683;48.650;9.290;2022-12-11T07:54:10;-2.10;92.50
57857;DHT22;43683;48.650;9.290;2022-12-11T07:56:37;-2.00;92.50
57857;DHT22;43683;48.650;9.290;2022-12-11T07:59:04;-2.00;92.40
57857;DHT22;43683;48.650;9.290;2022-12-11T08:01:33;-1.90;92.50
57857;DHT22;43683;48.650;9.290;2022-12-11T08:04:04;-1.90;92.50
57857;DHT22;43683;48.650;9.290;2022-12-11T08:06:32;-1.90;92.60
57857;DHT22;43683;48.650;9.290;2022-12-11T08:08:59;-2.00;92.70
57857;DHT22;43683;48.650;9.290;2022-12-11T08:11:26;-1.90;92.90
57857;DHT22;43683;48.650;9.290;2022-12-11T08:13:52;-1.90;92.90
57857;DHT22;43683;48.650;9.290;2022-12-11T08:16:18;-1.90;92.90
57857;DHT22;43683;48.650;9.290;2022-12-11T08:18:45;-1.90;93.00
57857;DHT22;43683;48.650;9.290;2022-12-11T08:23:38;-1.80;93.00
57857;DHT22;43683;48.650;9.290;2022-12-11T08:26:09;-1.70;92.90
57857;DHT22;43683;48.650;9.290;2022-12-11T08:28:36;-1.60;92.80
57857;DHT22;43683;48.650;9.290;2022-12-11T08:31:06;-1.40;92.70
57857;DHT22;43683;48.650;9.290;2022-12-11T08:33:33;-1.30;92.80
57857;DHT22;43683;48.650;9.290;2022-12-11T08:36:02;-1.20;93.00
57857;DHT22;43683;48.650;9.290;2022-12-11T08:38:28;-1.00;93.70
57857;DHT22;43683;48.650;9.290;2022-12-11T08:40:53;-0.80;93.70
57857;DHT22;43683;48.650;9.290;2022-12-11T08:43:19;-0.70;93.70
57857;DHT22;43683;48.650;9.290;2022-12-11T08:45:45;-0.70;93.70
57857;DHT22;43683;48.650;9.290;2022-12-11T08:48:11;-0.60;93.70
57857;DHT22;43683;48.650;9.290;2022-12-11T08:50:36;-0.60;93.70
57857;DHT22;43683;48.650;9.290;2022-12-11T08:53:02;-0.60;93.50
57857;DHT22;43683;48.650;9.290;2022-12-11T08:55:28;-0.60;93.30
57857;DHT22;43683;48.650;9.290;2022-12-11T08:57:54;-0.60;93.50
57857;DHT22;43683;48.650;9.290;2022-12-11T09:00:19;-0.60;92.90
57857;DHT22;43683;48.650;9.290;2022-12-11T09:02:45;-0.60;92.70
57857;DHT22;43683;48.650;9.290;2022-12-11T09:05:11;-0.40;92.50
57857;DHT22;43683;48.650;9.290;2022-12-11T09:07:37;-0.20;92.20
57857;DHT22;43683;48.650;9.290;2022-12-11T09:10:05;0.00;91.90
57857;DHT22;43683;48.650;9.290;2022-12-11T09:12:32;0.20;91.60
57857;DHT22;43683;48.650;9.290;2022-12-11T09:14:58;0.30;91.40
57857;DHT22;43683;48.650;9.290;2022-12-11T09:17:24;0.40;91.30
57857;DHT22;43683;48.650;9.290;2022-12-11T09:19:50;0.50;91.20
57857;DHT22;43683;48.650;9.290;2022-12-11T09:22:15;0.70;91.20
57857;DHT22;43683;48.650;9.290;2022-12-11T09:24:41;0.90;91.10
57857;DHT22;43683;48.650;9.290;2022-12-11T09:27:07;1.00;90.90
57857;DHT22;43683;48.650;9.290;2022-12-11T09:29:32;1.00;90.80
57857;DHT22;43683;48.650;9.290;2022-12-11T09:31:58;1.00;90.80
57857;DHT22;43683;48.650;9.290;2022-12-11T09:34:24;1.00;90.80
57857;DHT22;43683;48.650;9.290;2022-12-11T09:36:50;0.90;90.70
57857;DHT22;43683;48.650;9.290;2022-12-11T09:39:17;0.90;90.70
57857;DHT22;43683;48.650;9.290;2022-12-11T09:44:56;0.70;90.80
57857;DHT22;43683;48.650;9.290;2022-12-11T09:47:26;0.60;90.70
57857;DHT22;43683;48.650;9.290;2022-12-11T09:50:19;0.50;90.80
57857;DHT22;43683;48.650;9.290;2022-12-11T09:55:22;0.40;90.80
57857;DHT22;43683;48.650;9.290;2022-12-11T09:58:30;0.40;90.80
57857;DHT22;43683;48.650;9.290;2022-12-11T10:01:32;0.40;90.60
57857;DHT22;43683;48.650;9.290;2022-12-11T10:07:24;0.60;90.40
57857;DHT22;43683;48.650;9.290;2022-12-11T10:10:07;0.70;90.20
57857;DHT22;43683;48.650;9.290;2022-12-11T10:12:39;0.80;90.20
57857;DHT22;43683;48.650;9.290;2022-12-11T10:18:03;1.10;90.10
57857;DHT22;43683;48.650;9.290;2022-12-11T10:20:32;1.10;90.10
57857;DHT22;43683;48.650;9.290;2022-12-11T10:23:02;1.20;90.10
57857;DHT22;43683;48.650;9.290;2022-12-11T10:25:35;1.20;90.00
57857;DHT22;43683;48.650;9.290;2022-12-11T10:28:15;1.40;89.80
57857;DHT22;43683;48.650;9.290;2022-12-11T10:33:53;1.50;89.40
57857;DHT22;43683;48.650;9.290;2022-12-11T10:36:30;1.60;89.50
57857;DHT22;43683;48.650;9.290;2022-12-11T10:38:57;1.50;89.50
57857;DHT22;43683;48.650;9.290;2022-12-11T10:41:36;1.50;89.70
57857;DHT22;43683;48.650;9.290;2022-12-11T10:44:17;1.40;89.60
57857;DHT22;43683;48.650;9.290;2022-12-11T10:46:47;1.30;89.60
57857;DHT22;43683;48.650;9.290;2022-12-11T10:49:22;1.30;89.60
57857;DHT22;43683;48.650;9.290;2022-12-11T10:51:49;1.40;89.40
57857;DHT22;43683;48.650;9.290;2022-12-11T10:54:32;1.50;89.10
57857;DHT22;43683;48.650;9.290;2022-12-11T10:57:01;1.60;88.80
57857;DHT22;43683;48.650;9.290;2022-12-11T10:59:40;1.60;88.70
57857;DHT22;43683;48.650;9.290;2022-12-11T11:02:22;1.70;88.30
57857;DHT22;43683;48.650;9.290;2022-12-11T11:04:49;1.80;88.10
57857;DHT22;43683;48.650;9.290;2022-12-11T11:09:44;1.90;87.80
57857;DHT22;43683;48.650;9.290;2022-12-11T11:12:27;2.00;87.80
57857;DHT22;43683;48.650;9.290;2022-12-11T11:15:12;2.10;87.60
57857;DHT22;43683;48.650;9.290;2022-12-11T11:18:07;2.10;87.50
57857;DHT22;43683;48.650;9.290;2022-12-11T11:20:34;2.20;87.40
57857;DHT22;43683;48.650;9.290;2022-12-11T11:23:02;2.20;87.70
57857;DHT22;43683;48.650;9.290;2022-12-11T11:25:30;2.10;87.90
57857;DHT22;43683;48.650;9.290;2022-12-11T11:28:01;2.10;88.10
57857;DHT22;43683;48.650;9.290;2022-12-11T11:30:30;2.10;88.20
57857;DHT22;43683;48.650;9.290;2022-12-11T11:33:03;2.20;88.00
57857;DHT22;43683;48.650;9.290;2022-12-11T11:35:30;2.20;87.70
57857;DHT22;43683;48.650;9.290;2022-12-11T11:38:15;2.10;87.50
57857;DHT22;43683;48.650;9.290;2022-12-11T11:41:04;2.10;87.50
57857;DHT22;43683;48.650;9.290;2022-12-11T11:43:39;2.00;87.60
57857;DHT22;43683;48.650;9.290;2022-12-11T11:46:13;1.90;87.70
57857;DHT22;43683;48.650;9.290;2022-12-11T11:52:41;1.70;88.00
57857;DHT22;43683;48.650;9.290;2022-12-11T11:54:49;1.60;88.10
57857;DHT22;43683;48.650;9.290;2022-12-11T11:57:26;1.60;88.20
57857;DHT22;43683;48.650;9.290;2022-12-11T11:59:57;1.50;88.20
57857;DHT22;43683;48.650;9.290;2022-12-11T12:02:25;1.50;88.30
57857;DHT22;43683;48.650;9.290;2022-12-11T12:04:51;1.40;88.40
57857;DHT22;43683;48.650;9.290;2022-12-11T12:07:39;1.40;88.30
57857;DHT22;43683;48.650;9.290;2022-12-11T12:18:01;1.60;87.60
57857;DHT22;43683;48.650;9.290;2022-12-11T12:20:49;1.60;87.70
57857;DHT22;43683;48.650;9.290;2022-12-11T12:31:42;1.70;87.20
57857;DHT22;43683;48.650;9.290;2022-12-11T12:37:05;1.70;87.30
57857;DHT22;43683;48.650;9.290;2022-12-11T12:45:09;1.80;87.30
57857;DHT22;43683;48.650;9.290;2022-12-11T12:47:38;1.80;87.40
57857;DHT22;43683;48.650;9.290;2022-12-11T12:50:10;1.80;87.70
57857;DHT22;43683;48.650;9.290;2022-12-11T12:52:38;1.80;87.80
57857;DHT22;43683;48.650;9.290;2022-12-11T12:55:23;1.80;87.80
57857;DHT22;43683;48.650;9.290;2022-12-11T12:58:06;2.00;87.60
57857;DHT22;43683;48.650;9.290;2022-12-11T13:00:48;2.20;87.30
57857;DHT22;43683;48.650;9.290;2022-12-11T13:03:22;2.30;87.20
57857;DHT22;43683;48.650;9.290;2022-12-11T13:06:07;2.50;86.60
57857;DHT22;43683;48.650;9.290;2022-12-11T13:08:48;2.70;86.20
57857;DHT22;43683;48.650;9.290;2022-12-11T13:11:16;2.80;85.80
57857;DHT22;43683;48.650;9.290;2022-12-11T13:14:07;2.90;85.70
57857;DHT22;43683;48.650;9.290;2022-12-11T13:16:49;3.00;85.30
57857;DHT22;43683;48.650;9.290;2022-12-11T13:24:31;2.90;85.50
57857;DHT22;43683;48.650;9.290;2022-12-11T13:27:21;3.00;85.40
57857;DHT22;43683;48.650;9.290;2022-12-11T13:29:47;3.10;84.90
57857;DHT22;43683;48.650;9.290;2022-12-11T13:34:40;3.80;84.30
57857;DHT22;43683;48.650;9.290;2022-12-11T13:39:46;4.40;82.60
57857;DHT22;43683;48.650;9.290;2022-12-11T13:42:37;4.60;82.90
57857;DHT22;43683;48.650;9.290;2022-12-11T13:45:14;4.80;83.00
57857;DHT22;43683;48.650;9.290;2022-12-11T13:47:42;5.00;83.90
57857;DHT22;43683;48.650;9.290;2022-12-11T13:50:38;5.00;84.30
57857;DHT22;43683;48.650;9.290;2022-12-11T13:53:15;5.10;84.60
57857;DHT22;43683;48.650;9.290;2022-12-11T13:55:42;5.20;85.20
57857;DHT22;43683;48.650;9.290;2022-12-11T13:58:18;5.40;85.60
57857;DHT22;43683;48.650;9.290;2022-12-11T14:03:22;5.70;84.70
57857;DHT22;43683;48.650;9.290;2022-12-11T14:05:48;5.60;85.30
57857;DHT22;43683;48.650;9.290;2022-12-11T14:08:20;5.60;85.40
57857;DHT22;43683;48.650;9.290;2022-12-11T14:10:53;5.50;85.40
57857;DHT22;43683;48.650;9.290;2022-12-11T14:13:29;5.50;85.90
57857;DHT22;43683;48.650;9.290;2022-12-11T14:15:55;5.50;85.50
57857;DHT22;43683;48.650;9.290;2022-12-11T14:18:25;5.50;85.70
57857;DHT22;43683;48.650;9.290;2022-12-11T14:20:56;5.50;85.30
57857;DHT22;43683;48.650;9.290;2022-12-11T14:23:26;5.50;84.80
57857;DHT22;43683;48.650;9.290;2022-12-11T14:25:57;5.20;84.40
57857;DHT22;43683;48.650;9.290;2022-12-11T14:28:24;4.70;84.30
57857;DHT22;43683;48.650;9.290;2022-12-11T14:30:56;4.10;84.90
57857;DHT22;43683;48.650;9.290;2022-12-11T14:33:26;3.50;85.60
57857;DHT22;43683;48.650;9.290;2022-12-11T14:35:54;3.00;85.80
57857;DHT22;43683;48.650;9.290;2022-12-11T14:38:27;2.60;86.10
57857;DHT22;43683;48.650;9.290;2022-12-11T14:40:58;2.30;86.00
57857;DHT22;43683;48.650;9.290;2022-12-11T14:43:32;2.10;85.90
57857;DHT22;43683;48.650;9.290;2022-12-11T14:46:03;1.90;85.70
57857;DHT22;43683;48.650;9.290;2022-12-11T14:48:43;1.80;85.50
57857;DHT22;43683;48.650;9.290;2022-12-11T14:51:16;1.60;85.30
57857;DHT22;43683;48.650;9.290;2022-12-11T14:53:53;1.40;85.20
57857;DHT22;43683;48.650;9.290;2022-12-11T14:56:21;1.20;85.10
57857;DHT22;43683;48.650;9.290;2022-12-11T14:58:57;1.10;85.20
57857;DHT22;43683;48.650;9.290;2022-12-11T15:01:26;1.00;85.20
57857;DHT22;43683;48.650;9.290;2022-12-11T15:04:06;0.80;85.30
57857;DHT22;43683;48.650;9.290;2022-12-11T15:06:46;0.70;85.50
57857;DHT22;43683;48.650;9.290;2022-12-11T15:12:15;0.50;85.60
57857;DHT22;43683;48.650;9.290;2022-12-11T15:14:58;0.40;85.70
57857;DHT22;43683;48.650;9.290;2022-12-11T15:17:29;0.30;85.70
57857;DHT22;43683;48.650;9.290;2022-12-11T15:20:04;0.30;85.80
57857;DHT22;43683;48.650;9.290;2022-12-11T15:22:31;0.20;85.70
57857;DHT22;43683;48.650;9.290;2022-12-11T15:24:58;0.20;85.80
57857;DHT22;43683;48.650;9.290;2022-12-11T15:27:32;0.10;85.80
57857;DHT22;43683;48.650;9.290;2022-12-11T15:29:58;0.10;85.80
57857;DHT22;43683;48.650;9.290;2022-12-11T15:32:24;0.00;85.80
57857;DHT22;43683;48.650;9.290;2022-12-11T15:34:54;0.00;85.80
57857;DHT22;43683;48.650;9.290;2022-12-11T15:37:25;0.00;85.90
57857;DHT22;43683;48.650;9.290;2022-12-11T15:39:52;-0.10;85.90
57857;DHT22;43683;48.650;9.290;2022-12-11T15:44:47;-0.10;86.10
57857;DHT22;43683;48.650;9.290;2022-12-11T15:47:14;-0.10;86.20
57857;DHT22;43683;48.650;9.290;2022-12-11T15:49:40;-0.20;86.20
57857;DHT22;43683;48.650;9.290;2022-12-11T15:52:06;-0.20;86.30
57857;DHT22;43683;48.650;9.290;2022-12-11T15:54:31;-0.30;86.40
57857;DHT22;43683;48.650;9.290;2022-12-11T15:56:58;-0.30;86.50
57857;DHT22;43683;48.650;9.290;2022-12-11T15:59:26;-0.30;86.40
57857;DHT22;43683;48.650;9.290;2022-12-11T16:01:52;-0.30;86.50
57857;DHT22;43683;48.650;9.290;2022-12-11T16:04:17;-0.30;86.60
57857;DHT22;43683;48.650;9.290;2022-12-11T16:06:43;-0.40;86.70
57857;DHT22;43683;48.650;9.290;2022-12-11T16:09:10;-0.40;86.90
57857;DHT22;43683;48.650;9.290;2022-12-11T16:11:36;-0.40;86.90
57857;DHT22;43683;48.650;9.290;2022-12-11T16:14:01;-0.50;87.10
57857;DHT22;43683;48.650;9.290;2022-12-11T16:16:30;-0.50;87.10
57857;DHT22;43683;48.650;9.290;2022-12-11T16:18:56;-0.50;87.30
57857;DHT22;43683;48.650;9.290;2022-12-11T16:21:22;-0.60;87.40
57857;DHT22;43683;48.650;9.290;2022-12-11T16:23:47;-0.70;87.60
57857;DHT22;43683;48.650;9.290;2022-12-11T16:26:13;-0.80;88.00
57857;DHT22;43683;48.650;9.290;2022-12-11T16:28:40;-1.00;88.60
57857;DHT22;43683;48.650;9.290;2022-12-11T16:31:13;-1.10;89.10
57857;DHT22;43683;48.650;9.290;2022-12-11T16:33:39;-1.20;89.60
57857;DHT22;43683;48.650;9.290;2022-12-11T16:36:14;-1.30;89.70
57857;DHT22;43683;48.650;9.290;2022-12-11T16:38:40;-1.40;89.80
57857;DHT22;43683;48.650;9.290;2022-12-11T16:41:08;-1.40;89.90
57857;DHT22;43683;48.650;9.290;2022-12-11T16:43:33;-1.50;90.00
57857;DHT22;43683;48.650;9.290;2022-12-11T16:45:59;-1.60;90.10
57857;DHT22;43683;48.650;9.290;2022-12-11T16:48:25;-1.70;90.20
57857;DHT22;43683;48.650;9.290;2022-12-11T16:50:53;-1.80;90.40
57857;DHT22;43683;48.650;9.290;2022-12-11T16:53:19;-1.90;90.50
57857;DHT22;43683;48.650;9.290;2022-12-11T16:55:45;-1.90;90.50
57857;DHT22;43683;48.650;9.290;2022-12-11T16:58:11;-2.00;90.60
57857;DHT22;43683;48.650;9.290;2022-12-11T17:00:40;-2.00;90.60
57857;DHT22;43683;48.650;9.290;2022-12-11T17:03:06;-2.00;90.60
57857;DHT22;43683;48.650;9.290;2022-12-11T17:05:32;-1.90;90.50
57857;DHT22;43683;48.650;9.290;2022-12-11T17:07:57;-1.90;90.40
57857;DHT22;43683;48.650;9.290;2022-12-11T17:10:23;-1.80;90.40